createdAt,value
2018-09-12T00:00:17.081Z,17.56
2018-09-12T00:01:17.067Z,17.58
2018-09-12T00:02:17.057Z,17.71
2018-09-12T00:03:17.059Z,17.68
2018-09-12T00:04:17.047Z,17.74
2018-09-12T00:05:17.037Z,17.72
2018-09-12T00:06:17.028Z,17.71
2018-09-12T00:07:17.018Z,17.66
2018-09-12T00:08:17.013Z,17.66
2018-09-12T00:09:17.007Z,17.68
2018-09-12T00:10:16.996Z,17.49
2018-09-12T00:11:16.982Z,17.41
2018-09-12T00:12:16.978Z,17.37
2018-09-12T00:13:16.962Z,17.30
2018-09-12T00:14:16.963Z,17.36
2018-09-12T00:15:16.953Z,17.31
2018-09-12T00:16:16.945Z,17.30
2018-09-12T00:17:16.941Z,17.23
2018-09-12T00:18:16.925Z,17.26
2018-09-12T00:19:16.919Z,17.21
2018-09-12T00:20:16.912Z,17.30
2018-09-12T00:21:16.966Z,17.30
2018-09-12T00:22:16.890Z,17.25
2018-09-12T00:23:16.878Z,17.34
2018-09-12T00:24:16.873Z,17.26
2018-09-12T00:25:16.864Z,17.34
2018-09-12T00:26:16.856Z,17.30
2018-09-12T00:27:16.851Z,17.31
2018-09-12T00:28:16.839Z,17.26
2018-09-12T00:29:16.832Z,17.43
2018-09-12T00:30:16.816Z,17.41
2018-09-12T00:31:16.812Z,17.36
2018-09-12T00:32:16.803Z,17.38
2018-09-12T00:33:16.792Z,17.49
2018-09-12T00:34:16.784Z,17.49
2018-09-12T00:35:16.771Z,17.43
2018-09-12T00:36:16.767Z,17.55
2018-09-12T00:37:16.758Z,17.56
2018-09-12T00:38:16.751Z,17.56
2018-09-12T00:39:16.742Z,17.58
2018-09-12T00:40:16.732Z,17.59
2018-09-12T00:41:16.721Z,17.64
2018-09-12T00:42:16.714Z,17.63
2018-09-12T00:43:16.710Z,17.59
2018-09-12T00:44:16.697Z,17.68
2018-09-12T00:45:16.699Z,17.68
2018-09-12T00:46:16.676Z,17.71
2018-09-12T00:47:16.677Z,17.68
2018-09-12T00:48:16.667Z,17.72
2018-09-12T00:49:16.654Z,17.68
2018-09-12T00:50:16.645Z,17.74
2018-09-12T00:51:16.635Z,17.66
2018-09-12T00:52:16.629Z,17.66
2018-09-12T00:53:16.618Z,17.66
2018-09-12T00:54:16.616Z,17.68
2018-09-12T00:55:16.596Z,17.68
2018-09-12T00:56:16.591Z,17.63
2018-09-12T00:57:16.581Z,17.70
2018-09-12T00:58:16.579Z,17.68
2018-09-12T00:59:16.565Z,17.58
2018-09-12T01:00:16.555Z,17.58
2018-09-12T01:01:16.554Z,17.59
2018-09-12T01:02:16.544Z,17.58
2018-09-12T01:03:16.532Z,17.62
2018-09-12T01:04:16.519Z,17.62
2018-09-12T01:05:16.511Z,17.59
2018-09-12T01:06:16.502Z,17.58
2018-09-12T01:07:16.498Z,17.68
2018-09-12T01:08:16.489Z,17.63
2018-09-12T01:09:16.477Z,17.68
2018-09-12T01:10:16.476Z,17.55
2018-09-12T01:11:16.455Z,17.58
2018-09-12T01:12:16.447Z,17.59
2018-09-12T01:13:16.446Z,17.59
2018-09-12T01:14:16.434Z,17.58
2018-09-12T01:15:16.422Z,17.55
2018-09-12T01:16:16.422Z,17.58
2018-09-12T01:17:16.405Z,17.58
2018-09-12T01:18:16.406Z,17.58
2018-09-12T01:19:16.387Z,17.51
2018-09-12T01:20:16.381Z,17.43
2018-09-12T01:21:16.370Z,17.46
2018-09-12T01:22:16.363Z,17.49
2018-09-12T01:23:16.356Z,17.43
2018-09-12T01:24:16.343Z,17.44
2018-09-12T01:25:16.333Z,17.41
2018-09-12T01:26:16.324Z,17.33
2018-09-12T01:27:16.322Z,17.30
2018-09-12T01:28:16.311Z,17.34
2018-09-12T01:29:16.304Z,17.40
2018-09-12T01:30:16.293Z,17.46
2018-09-12T01:31:16.283Z,17.41
2018-09-12T01:32:16.278Z,17.31
2018-09-12T01:33:16.274Z,17.46
2018-09-12T01:34:16.259Z,17.28
2018-09-12T01:35:16.250Z,17.30
2018-09-12T01:36:16.237Z,17.48
2018-09-12T01:37:16.231Z,17.25
2018-09-12T01:38:16.222Z,17.30
2018-09-12T01:39:16.215Z,17.25
2018-09-12T01:40:16.202Z,17.25
2018-09-12T01:41:16.193Z,17.28
2018-09-12T01:42:16.182Z,17.16
2018-09-12T01:43:16.178Z,17.12
2018-09-12T01:44:16.168Z,17.15
2018-09-12T01:45:16.168Z,17.08
2018-09-12T01:46:16.158Z,17.07
2018-09-12T01:47:16.137Z,17.03
2018-09-12T01:48:16.135Z,16.94
2018-09-12T01:49:16.151Z,16.98
2018-09-12T01:50:16.114Z,16.94
2018-09-12T01:51:16.106Z,16.91
2018-09-12T01:52:16.099Z,16.96
2018-09-12T01:53:16.095Z,17.00
2018-09-12T01:54:16.078Z,16.94
2018-09-12T01:55:16.067Z,16.97
2018-09-12T01:56:16.068Z,17.03
2018-09-12T01:57:16.052Z,17.03
2018-09-12T01:58:16.043Z,17.08
2018-09-12T01:59:16.034Z,17.08
2018-09-12T02:00:16.024Z,17.01
2018-09-12T02:01:16.017Z,17.07
2018-09-12T02:02:16.003Z,17.07
2018-09-12T02:03:15.995Z,17.03
2018-09-12T02:04:15.991Z,17.01
2018-09-12T02:05:15.983Z,17.04
2018-09-12T02:06:15.976Z,17.08
2018-09-12T02:07:15.961Z,16.98
2018-09-12T02:08:15.953Z,17.06
2018-09-12T02:09:15.943Z,16.98
2018-09-12T02:10:15.936Z,16.97
2018-09-12T02:11:15.928Z,16.94
2018-09-12T02:12:15.918Z,17.00
2018-09-12T02:13:15.908Z,16.93
2018-09-12T02:14:15.895Z,16.98
2018-09-12T02:15:15.890Z,16.89
2018-09-12T02:16:15.884Z,16.83
2018-09-12T02:17:15.870Z,16.83
2018-09-12T02:18:15.863Z,16.88
2018-09-12T02:19:15.854Z,16.83
2018-09-12T02:20:15.841Z,16.96
2018-09-12T02:21:15.835Z,16.88
2018-09-12T02:22:15.830Z,16.89
2018-09-12T02:23:15.815Z,16.85
2018-09-12T02:24:15.807Z,16.85
2018-09-12T02:25:15.801Z,16.79
2018-09-12T02:26:15.789Z,16.85
2018-09-12T02:27:15.779Z,16.82
2018-09-12T02:28:15.771Z,16.88
2018-09-12T02:29:15.765Z,16.83
2018-09-12T02:30:15.751Z,16.79
2018-09-12T02:31:15.745Z,16.71
2018-09-12T02:32:15.738Z,16.71
2018-09-12T02:33:15.725Z,16.73
2018-09-12T02:34:15.719Z,16.76
2018-09-12T02:35:15.705Z,16.78
2018-09-12T02:36:15.701Z,16.70
2018-09-12T02:37:15.693Z,16.78
2018-09-12T02:38:15.680Z,16.81
2018-09-12T02:39:15.679Z,16.71
2018-09-12T02:40:15.667Z,16.81
2018-09-12T02:41:15.651Z,16.81
2018-09-12T02:42:15.644Z,16.76
2018-09-12T02:43:15.642Z,16.73
2018-09-12T02:44:15.631Z,16.75
2018-09-12T02:45:15.615Z,16.78
2018-09-12T02:46:15.605Z,16.86
2018-09-12T02:47:15.597Z,16.86
2018-09-12T02:48:15.590Z,16.86
2018-09-12T02:49:15.577Z,16.85
2018-09-12T02:50:15.573Z,16.83
2018-09-12T02:51:15.557Z,16.85
2018-09-12T02:52:15.553Z,16.86
2018-09-12T02:53:15.543Z,16.86
2018-09-12T02:54:15.532Z,16.75
2018-09-12T02:55:15.527Z,16.71
2018-09-12T02:56:15.516Z,16.76
2018-09-12T02:57:15.514Z,16.75
2018-09-12T02:58:15.499Z,16.78
2018-09-12T02:59:15.486Z,16.70
2018-09-12T03:00:15.475Z,16.61
2018-09-12T03:01:15.467Z,16.63
2018-09-12T03:02:15.460Z,16.71
2018-09-12T03:03:15.449Z,16.68
2018-09-12T03:04:15.442Z,16.68
2018-09-12T03:05:15.430Z,16.73
2018-09-12T03:06:15.423Z,16.68
2018-09-12T03:07:15.414Z,16.68
2018-09-12T03:08:15.403Z,16.70
2018-09-12T03:09:15.399Z,16.67
2018-09-12T03:10:15.392Z,16.70
2018-09-12T03:11:15.377Z,16.61
2018-09-12T03:12:15.368Z,16.63
2018-09-12T03:13:15.358Z,16.64
2018-09-12T03:14:15.348Z,16.56
2018-09-12T03:15:15.341Z,16.60
2018-09-12T03:16:15.336Z,16.58
2018-09-12T03:17:15.333Z,16.63
2018-09-12T03:18:15.311Z,16.50
2018-09-12T03:19:15.303Z,16.49
2018-09-12T03:20:15.291Z,16.48
2018-09-12T03:21:15.290Z,16.45
2018-09-12T03:22:15.278Z,16.56
2018-09-12T03:23:15.268Z,16.58
2018-09-12T03:24:15.254Z,16.52
2018-09-12T03:25:15.244Z,16.53
2018-09-12T03:26:15.237Z,16.52
2018-09-12T03:27:15.232Z,16.49
2018-09-12T03:28:15.226Z,16.48
2018-09-12T03:29:15.211Z,16.46
2018-09-12T03:30:15.198Z,16.45
2018-09-12T03:31:15.190Z,16.42
2018-09-12T03:32:15.183Z,16.38
2018-09-12T03:33:15.248Z,16.34
2018-09-12T03:34:15.167Z,16.39
2018-09-12T03:35:15.157Z,16.39
2018-09-12T03:36:15.147Z,16.41
2018-09-12T03:37:15.137Z,16.45
2018-09-12T03:38:15.127Z,16.42
2018-09-12T03:39:15.123Z,16.31
2018-09-12T03:40:15.107Z,16.39
2018-09-12T03:41:15.105Z,16.33
2018-09-12T03:42:15.093Z,16.35
2018-09-12T03:43:15.082Z,16.33
2018-09-12T03:44:15.074Z,16.39
2018-09-12T03:45:15.068Z,16.33
2018-09-12T03:46:15.050Z,16.35
2018-09-12T03:47:15.044Z,16.39
2018-09-12T03:48:15.040Z,16.35
2018-09-12T03:49:15.031Z,16.35
2018-09-12T03:50:15.039Z,16.31
2018-09-12T03:51:15.007Z,16.42
2018-09-12T03:52:14.993Z,16.46
2018-09-12T03:53:14.989Z,16.38
2018-09-12T03:54:14.986Z,16.38
2018-09-12T03:55:14.969Z,16.35
2018-09-12T03:56:14.962Z,16.42
2018-09-12T03:57:14.953Z,16.45
2018-09-12T03:58:14.940Z,16.41
2018-09-12T03:59:14.930Z,16.43
2018-09-12T04:00:14.925Z,16.39
2018-09-12T04:01:14.912Z,16.33
2018-09-12T04:02:14.904Z,16.42
2018-09-12T04:03:14.895Z,16.38
2018-09-12T04:04:14.886Z,16.38
2018-09-12T04:05:14.874Z,16.42
2018-09-12T04:06:14.864Z,16.38
2018-09-12T04:07:14.857Z,16.38
2018-09-12T04:08:14.848Z,16.45
2018-09-12T04:09:14.840Z,16.39
2018-09-12T04:10:14.832Z,16.34
2018-09-12T04:11:14.822Z,16.33
2018-09-12T04:12:14.813Z,16.43
2018-09-12T04:13:14.803Z,16.34
2018-09-12T04:14:14.801Z,16.39
2018-09-12T04:15:14.782Z,16.35
2018-09-12T04:16:14.770Z,16.38
2018-09-12T04:17:14.765Z,16.39
2018-09-12T04:18:14.754Z,16.39
2018-09-12T04:19:14.745Z,16.24
2018-09-12T04:20:14.730Z,16.34
2018-09-12T04:21:14.723Z,16.23
2018-09-12T04:22:14.715Z,16.31
2018-09-12T04:23:14.710Z,16.30
2018-09-12T04:24:14.751Z,16.24
2018-09-12T04:25:14.687Z,16.25
2018-09-12T04:26:14.675Z,16.23
2018-09-12T04:27:14.670Z,16.14
2018-09-12T04:28:14.659Z,16.14
2018-09-12T04:29:14.649Z,16.12
2018-09-12T04:30:14.642Z,16.05
2018-09-12T04:31:14.631Z,16.09
2018-09-12T04:32:14.623Z,16.05
2018-09-12T04:33:14.616Z,16.09
2018-09-12T04:34:14.601Z,16.11
2018-09-12T04:35:14.595Z,16.08
2018-09-12T04:36:14.584Z,16.12
2018-09-12T04:37:14.581Z,16.09
2018-09-12T04:38:14.567Z,16.15
2018-09-12T04:39:14.557Z,16.12
2018-09-12T04:40:14.547Z,16.11
2018-09-12T04:41:14.538Z,16.15
2018-09-12T04:42:14.538Z,16.12
2018-09-12T04:43:14.521Z,16.09
2018-09-12T04:44:14.511Z,16.11
2018-09-12T04:45:14.503Z,16.04
2018-09-12T04:46:14.517Z,16.07
2018-09-12T04:47:14.480Z,16.07
2018-09-12T04:48:14.464Z,16.09
2018-09-12T04:49:14.461Z,16.08
2018-09-12T04:50:14.449Z,16.09
2018-09-12T04:51:14.444Z,16.23
2018-09-12T04:52:14.438Z,16.05
2018-09-12T04:53:14.424Z,16.11
2018-09-12T04:54:14.423Z,16.07
2018-09-12T04:55:14.407Z,16.08
2018-09-12T04:56:14.395Z,16.14
2018-09-12T04:57:14.392Z,16.07
2018-09-12T04:58:14.374Z,16.08
2018-09-12T04:59:14.369Z,16.12
2018-09-12T05:00:14.363Z,16.02
2018-09-12T05:01:14.344Z,16.02
2018-09-12T05:02:14.339Z,16.08
2018-09-12T05:03:14.327Z,16.12
2018-09-12T05:04:14.323Z,16.12
2018-09-12T05:05:14.311Z,16.21
2018-09-12T05:06:14.302Z,16.11
2018-09-12T05:07:14.292Z,16.09
2018-09-12T05:08:14.279Z,16.11
2018-09-12T05:09:14.273Z,16.07
2018-09-12T05:10:14.273Z,16.08
2018-09-12T05:11:14.251Z,16.08
2018-09-12T05:12:14.242Z,16.09
2018-09-12T05:13:14.236Z,16.04
2018-09-12T05:14:14.232Z,16.00
2018-09-12T05:15:14.216Z,16.08
2018-09-12T05:16:14.202Z,16.01
2018-09-12T05:17:14.195Z,15.97
2018-09-12T05:18:14.189Z,15.96
2018-09-12T05:19:14.178Z,15.93
2018-09-12T05:20:14.164Z,16.00
2018-09-12T05:21:14.158Z,16.05
2018-09-12T05:22:14.152Z,16.04
2018-09-12T05:23:14.136Z,16.00
2018-09-12T05:24:14.130Z,16.00
2018-09-12T05:25:14.118Z,16.05
2018-09-12T05:26:14.106Z,15.97
2018-09-12T05:27:14.103Z,16.05
2018-09-12T05:28:14.089Z,15.96
2018-09-12T05:29:14.077Z,15.97
2018-09-12T05:30:14.068Z,15.93
2018-09-12T05:31:14.064Z,15.87
2018-09-12T05:32:14.049Z,15.84
2018-09-12T05:33:14.044Z,15.74
2018-09-12T05:34:14.037Z,15.74
2018-09-12T05:35:14.038Z,15.78
2018-09-12T05:36:14.031Z,15.62
2018-09-12T05:37:14.005Z,15.65
2018-09-12T05:38:13.999Z,15.69
2018-09-12T05:39:13.986Z,15.71
2018-09-12T05:40:13.974Z,15.78
2018-09-12T05:41:13.967Z,15.68
2018-09-12T05:42:13.955Z,15.80
2018-09-12T05:43:13.943Z,15.75
2018-09-12T05:44:13.938Z,15.76
2018-09-12T05:45:13.928Z,15.76
2018-09-12T05:46:13.919Z,15.86
2018-09-12T05:47:13.909Z,15.83
2018-09-12T05:48:13.900Z,15.90
2018-09-12T05:49:13.890Z,15.86
2018-09-12T05:50:13.923Z,15.89
2018-09-12T05:51:13.863Z,15.84
2018-09-12T05:52:13.860Z,15.94
2018-09-12T05:53:13.855Z,15.92
2018-09-12T05:54:13.845Z,15.94
2018-09-12T05:55:13.831Z,15.97
2018-09-12T05:56:13.815Z,15.97
2018-09-12T05:57:13.816Z,16.00
2018-09-12T05:58:13.801Z,16.02
2018-09-12T05:59:13.797Z,16.04
2018-09-12T06:00:13.783Z,16.02
2018-09-12T06:01:13.777Z,16.04
2018-09-12T06:02:13.760Z,16.04
2018-09-12T06:03:13.752Z,16.05
2018-09-12T06:04:13.743Z,16.04
2018-09-12T06:05:13.738Z,16.08
2018-09-12T06:06:13.723Z,16.05
2018-09-12T06:07:13.883Z,16.14
2018-09-12T06:08:13.703Z,16.09
2018-09-12T06:09:13.694Z,16.15
2018-09-12T06:10:13.678Z,16.11
2018-09-12T06:11:13.678Z,16.14
2018-09-12T06:12:13.665Z,16.09
2018-09-12T06:13:13.656Z,16.09
2018-09-12T06:14:13.691Z,16.21
2018-09-12T06:15:13.641Z,16.07
2018-09-12T06:16:13.635Z,16.07
2018-09-12T06:17:13.621Z,16.11
2018-09-12T06:18:13.612Z,16.11
2018-09-12T06:19:13.600Z,16.07
2018-09-12T06:20:13.591Z,16.12
2018-09-12T06:21:13.580Z,16.08
2018-09-12T06:22:13.569Z,16.14
2018-09-12T06:23:13.564Z,16.20
2018-09-12T06:24:13.555Z,16.08
2018-09-12T06:25:13.543Z,16.14
2018-09-12T06:26:13.534Z,16.24
2018-09-12T06:27:13.523Z,16.14
2018-09-12T06:28:13.516Z,16.20
2018-09-12T06:29:13.505Z,16.21
2018-09-12T06:30:13.488Z,16.25
2018-09-12T06:31:13.481Z,16.20
2018-09-12T06:32:13.476Z,16.20
2018-09-12T06:33:13.472Z,16.27
2018-09-12T06:34:13.456Z,16.24
2018-09-12T06:35:13.446Z,16.25
2018-09-12T06:36:13.441Z,16.24
2018-09-12T06:37:13.427Z,16.23
2018-09-12T06:38:13.466Z,16.23
2018-09-12T06:39:13.419Z,16.35
2018-09-12T06:40:13.398Z,16.35
2018-09-12T06:41:13.386Z,16.35
2018-09-12T06:42:13.382Z,16.43
2018-09-12T06:43:13.379Z,16.53
2018-09-12T06:44:13.356Z,16.49
2018-09-12T06:45:13.360Z,16.63
2018-09-12T06:46:13.340Z,16.60
2018-09-12T06:47:13.329Z,16.81
2018-09-12T06:48:13.325Z,16.85
2018-09-12T06:49:13.314Z,16.96
2018-09-12T06:50:13.306Z,17.00
2018-09-12T06:51:13.296Z,17.08
2018-09-12T06:52:13.282Z,17.14
2018-09-12T06:53:13.276Z,17.31
2018-09-12T06:54:13.260Z,17.28
2018-09-12T06:55:13.256Z,17.36
2018-09-12T06:56:13.253Z,17.54
2018-09-12T06:57:13.237Z,17.70
2018-09-12T06:58:13.229Z,17.82
2018-09-12T06:59:13.219Z,17.89
2018-09-12T07:00:13.214Z,17.92
2018-09-12T07:01:13.200Z,18.10
2018-09-12T07:02:13.190Z,18.03
2018-09-12T07:03:13.184Z,18.12
2018-09-12T07:04:13.176Z,18.23
2018-09-12T07:05:13.171Z,18.29
2018-09-12T07:06:13.154Z,18.39
2018-09-12T07:07:13.144Z,18.41
2018-09-12T07:08:13.136Z,18.52
2018-09-12T07:09:13.132Z,18.72
2018-09-12T07:10:13.119Z,18.70
2018-09-12T07:11:13.109Z,18.80
2018-09-12T07:12:13.101Z,18.87
2018-09-12T07:13:13.094Z,18.90
2018-09-12T07:14:13.123Z,19.02
2018-09-12T07:15:13.075Z,19.08
2018-09-12T07:16:13.077Z,19.21
2018-09-12T07:17:13.063Z,19.14
2018-09-12T07:18:13.056Z,19.33
2018-09-12T07:19:13.042Z,19.36
2018-09-12T07:20:13.030Z,19.47
2018-09-12T07:21:13.024Z,19.50
2018-09-12T07:22:13.015Z,19.59
2018-09-12T07:23:13.009Z,19.61
2018-09-12T07:24:13.002Z,19.73
2018-09-12T07:25:12.993Z,19.77
2018-09-12T07:26:12.982Z,19.76
2018-09-12T07:27:12.972Z,19.84
2018-09-12T07:28:12.964Z,19.92
2018-09-12T07:29:12.958Z,19.98
2018-09-12T07:30:12.948Z,20.02
2018-09-12T07:31:12.936Z,20.14
2018-09-12T07:32:12.932Z,20.14
2018-09-12T07:33:12.926Z,20.29
2018-09-12T07:34:12.909Z,20.32
2018-09-12T07:35:12.911Z,20.31
2018-09-12T07:36:12.899Z,20.38
2018-09-12T07:37:12.893Z,20.42
2018-09-12T07:38:12.883Z,20.50
2018-09-12T07:39:12.875Z,20.55
2018-09-12T07:40:12.870Z,20.69
2018-09-12T07:41:12.864Z,20.76
2018-09-12T07:42:12.856Z,20.74
2018-09-12T07:43:12.846Z,20.72
2018-09-12T07:44:12.838Z,20.85
2018-09-12T07:45:12.830Z,20.91
2018-09-12T07:46:12.826Z,20.88
2018-09-12T07:47:12.816Z,21.07
2018-09-12T07:48:12.809Z,20.97
2018-09-12T07:49:12.815Z,21.03
2018-09-12T07:50:12.788Z,21.10
2018-09-12T07:51:12.780Z,21.14
2018-09-12T07:52:12.776Z,21.19
2018-09-12T07:53:12.771Z,21.24
2018-09-12T07:54:12.760Z,21.35
2018-09-12T07:55:12.789Z,21.35
2018-09-12T07:56:12.850Z,21.47
2018-09-12T07:57:12.736Z,21.53
2018-09-12T07:58:12.735Z,21.54
2018-09-12T07:59:12.727Z,21.71
2018-09-12T08:00:12.840Z,21.77
2018-09-12T08:01:12.714Z,21.84
2018-09-12T08:02:12.705Z,21.83
2018-09-12T08:03:12.700Z,22.03
2018-09-12T08:04:12.689Z,22.06
2018-09-12T08:05:12.707Z,22.03
2018-09-12T08:06:12.674Z,22.03
2018-09-12T08:07:12.667Z,22.09
2018-09-12T08:08:12.662Z,22.25
2018-09-12T08:09:12.652Z,22.33
2018-09-12T08:10:12.650Z,22.36
2018-09-12T08:11:12.640Z,22.39
2018-09-12T08:12:12.647Z,22.51
2018-09-12T08:13:12.624Z,22.58
2018-09-12T08:14:12.618Z,22.57
2018-09-12T08:15:12.609Z,22.65
2018-09-12T08:16:12.601Z,22.73
2018-09-12T08:17:12.602Z,22.68
2018-09-12T08:18:12.592Z,22.83
2018-09-12T08:19:12.583Z,22.85
2018-09-12T08:20:12.574Z,22.86
2018-09-12T08:21:12.570Z,22.98
2018-09-12T08:22:12.558Z,23.00
2018-09-12T08:23:12.554Z,23.07
2018-09-12T08:24:12.550Z,23.10
2018-09-12T08:25:12.540Z,23.12
2018-09-12T08:26:12.603Z,23.20
2018-09-12T08:27:12.531Z,23.22
2018-09-12T08:28:12.519Z,23.28
2018-09-12T08:29:12.519Z,23.35
2018-09-12T08:30:12.506Z,23.36
2018-09-12T08:31:12.504Z,23.43
2018-09-12T08:32:12.498Z,23.50
2018-09-12T08:33:12.504Z,23.40
2018-09-12T08:34:12.484Z,23.51
2018-09-12T08:35:12.476Z,23.46
2018-09-12T08:36:12.476Z,23.57
2018-09-12T08:37:12.462Z,23.58
2018-09-12T08:38:12.457Z,23.63
2018-09-12T08:39:12.451Z,23.75
2018-09-12T08:40:12.446Z,23.66
2018-09-12T08:41:12.438Z,23.87
2018-09-12T08:42:12.445Z,23.80
2018-09-12T08:43:12.431Z,23.85
2018-09-12T08:44:12.420Z,23.90
2018-09-12T08:45:12.416Z,23.85
2018-09-12T08:46:12.410Z,23.93
2018-09-12T08:47:12.405Z,23.91
2018-09-12T08:48:12.395Z,23.87
2018-09-12T08:49:12.394Z,23.93
2018-09-12T08:50:12.387Z,23.98
2018-09-12T08:51:12.376Z,24.06
2018-09-12T08:52:12.374Z,24.12
2018-09-12T08:53:12.367Z,24.08
2018-09-12T08:54:12.365Z,24.10
2018-09-12T08:55:12.351Z,24.05
2018-09-12T08:56:12.349Z,23.97
2018-09-12T08:57:12.346Z,23.90
2018-09-12T08:58:12.336Z,23.88
2018-09-12T08:59:12.327Z,23.84
2018-09-12T09:00:12.329Z,23.78
2018-09-12T09:01:12.370Z,23.79
2018-09-12T09:02:12.314Z,23.73
2018-09-12T09:03:12.306Z,23.83
2018-09-12T09:04:12.377Z,23.72
2018-09-12T09:05:12.299Z,23.73
2018-09-12T09:06:12.290Z,23.80
2018-09-12T09:07:12.285Z,23.87
2018-09-12T09:08:12.277Z,23.83
2018-09-12T09:09:12.276Z,23.94
2018-09-12T09:10:12.263Z,23.88
2018-09-12T09:11:12.268Z,24.09
2018-09-12T09:12:12.256Z,24.06
2018-09-12T09:13:12.250Z,24.02
2018-09-12T09:14:12.245Z,23.94
2018-09-12T09:15:12.238Z,23.97
2018-09-12T09:16:12.234Z,23.91
2018-09-12T09:17:12.232Z,23.91
2018-09-12T09:18:12.221Z,23.83
2018-09-12T09:19:12.221Z,23.94
2018-09-12T09:20:12.211Z,24.05
2018-09-12T09:21:12.205Z,24.06
2018-09-12T09:22:12.194Z,24.09
2018-09-12T09:23:12.190Z,24.08
2018-09-12T09:24:12.191Z,24.05
2018-09-12T09:25:12.183Z,24.20
2018-09-12T09:26:12.173Z,24.30
2018-09-12T09:27:12.163Z,24.30
2018-09-12T09:28:12.164Z,24.52
2018-09-12T09:29:12.167Z,24.47
2018-09-12T09:30:12.149Z,24.47
2018-09-12T09:31:12.151Z,24.55
2018-09-12T09:32:12.149Z,24.69
2018-09-12T09:33:12.135Z,24.69
2018-09-12T09:34:12.127Z,24.87
2018-09-12T09:35:12.140Z,24.90
2018-09-12T09:36:12.117Z,24.96
2018-09-12T09:37:12.114Z,24.96
2018-09-12T09:38:12.106Z,25.03
2018-09-12T09:39:12.101Z,25.13
2018-09-12T09:40:12.093Z,25.15
2018-09-12T09:41:12.094Z,25.18
2018-09-12T09:42:12.091Z,25.13
2018-09-12T09:43:12.085Z,25.25
2018-09-12T09:44:12.075Z,25.30
2018-09-12T09:45:12.071Z,25.33
2018-09-12T09:46:12.064Z,25.43
2018-09-12T09:47:12.061Z,25.46
2018-09-12T09:48:12.164Z,25.50
2018-09-12T09:49:12.045Z,25.35
2018-09-12T09:50:12.044Z,25.24
2018-09-12T09:51:12.036Z,25.28
2018-09-12T09:52:12.034Z,25.33
2018-09-12T09:53:12.030Z,25.40
2018-09-12T09:54:12.025Z,25.40
2018-09-12T09:55:12.034Z,25.51
2018-09-12T09:56:12.012Z,25.58
2018-09-12T09:57:12.008Z,25.58
2018-09-12T09:58:12.001Z,25.58
2018-09-12T09:59:11.995Z,25.57
2018-09-12T10:00:12.000Z,25.60
2018-09-12T10:01:11.989Z,25.61
2018-09-12T10:02:11.987Z,25.61
2018-09-12T10:03:11.978Z,25.72
2018-09-12T10:04:11.978Z,25.67
2018-09-12T10:05:11.967Z,25.61
2018-09-12T10:06:11.963Z,25.73
2018-09-12T10:07:11.955Z,25.82
2018-09-12T10:08:11.952Z,25.88
2018-09-12T10:09:11.946Z,25.90
2018-09-12T10:10:11.944Z,26.02
2018-09-12T10:11:11.942Z,25.97
2018-09-12T10:12:11.936Z,26.01
2018-09-12T10:13:11.926Z,26.12
2018-09-12T10:14:11.921Z,25.97
2018-09-12T10:15:11.917Z,25.99
2018-09-12T10:16:11.917Z,25.99
2018-09-12T10:17:11.911Z,26.05
2018-09-12T10:18:11.906Z,26.13
2018-09-12T10:19:11.904Z,26.09
2018-09-12T10:20:11.893Z,26.13
2018-09-12T10:21:11.887Z,26.12
2018-09-12T10:22:11.884Z,26.28
2018-09-12T10:23:11.886Z,26.35
2018-09-12T10:24:11.904Z,26.17
2018-09-12T10:25:11.870Z,26.18
2018-09-12T10:26:11.866Z,26.18
2018-09-12T10:27:11.862Z,26.21
2018-09-12T10:28:11.858Z,26.30
2018-09-12T10:29:11.852Z,26.28
2018-09-12T10:30:11.847Z,26.35
2018-09-12T10:31:11.843Z,26.45
2018-09-12T10:32:11.839Z,26.57
2018-09-12T10:33:11.845Z,26.40
2018-09-12T10:34:11.832Z,26.51
2018-09-12T10:35:11.834Z,26.52
2018-09-12T10:36:11.822Z,26.60
2018-09-12T10:37:11.817Z,26.72
2018-09-12T10:38:11.813Z,26.88
2018-09-12T10:39:11.812Z,26.91
2018-09-12T10:40:11.804Z,27.04
2018-09-12T10:41:11.797Z,27.00
2018-09-12T10:42:11.791Z,26.94
2018-09-12T10:43:11.793Z,27.00
2018-09-12T10:44:11.787Z,27.10
2018-09-12T10:45:11.781Z,27.12
2018-09-12T10:46:11.781Z,27.13
2018-09-12T10:47:11.776Z,27.14
2018-09-12T10:48:11.776Z,27.10
2018-09-12T10:49:11.775Z,27.09
2018-09-12T10:50:11.767Z,27.19
2018-09-12T10:51:11.758Z,27.17
2018-09-12T10:52:11.757Z,27.17
2018-09-12T10:53:11.752Z,27.17
2018-09-12T10:54:11.745Z,27.18
2018-09-12T10:55:11.742Z,27.18
2018-09-12T10:56:11.733Z,27.12
2018-09-12T10:57:11.734Z,27.22
2018-09-12T10:58:11.731Z,27.07
2018-09-12T10:59:11.765Z,27.28
2018-09-12T11:00:11.730Z,27.27
2018-09-12T11:01:11.721Z,27.28
2018-09-12T11:02:11.715Z,27.34
2018-09-12T11:03:11.716Z,27.44
2018-09-12T11:04:11.735Z,27.37
2018-09-12T11:05:11.702Z,27.46
2018-09-12T11:06:11.700Z,27.39
2018-09-12T11:07:11.693Z,27.46
2018-09-12T11:08:11.690Z,27.39
2018-09-12T11:09:11.688Z,27.44
2018-09-12T11:10:11.688Z,27.40
2018-09-12T11:11:11.681Z,27.41
2018-09-12T11:12:11.682Z,27.32
2018-09-12T11:13:11.671Z,27.40
2018-09-12T11:14:11.673Z,27.31
2018-09-12T11:15:11.729Z,27.44
2018-09-12T11:16:11.678Z,27.41
2018-09-12T11:17:11.662Z,27.32
2018-09-12T11:18:11.657Z,27.41
2018-09-12T11:19:11.649Z,27.37
2018-09-12T11:20:11.645Z,27.36
2018-09-12T11:21:11.651Z,27.34
2018-09-12T11:22:11.639Z,27.24
2018-09-12T11:23:11.635Z,27.29
2018-09-12T11:24:11.631Z,27.34
2018-09-12T11:25:11.629Z,27.37
2018-09-12T11:26:11.626Z,27.39
2018-09-12T11:27:11.624Z,27.46
2018-09-12T11:28:11.620Z,27.43
2018-09-12T11:29:11.638Z,27.47
2018-09-12T11:30:11.618Z,27.51
2018-09-12T11:31:11.607Z,27.54
2018-09-12T11:32:11.607Z,27.51
2018-09-12T11:33:11.600Z,27.50
2018-09-12T11:34:11.635Z,27.46
2018-09-12T11:35:11.593Z,27.49
2018-09-12T11:36:11.593Z,27.37
2018-09-12T11:37:11.591Z,27.39
2018-09-12T11:38:11.583Z,27.49
2018-09-12T11:39:11.582Z,27.50
2018-09-12T11:40:11.621Z,27.46
2018-09-12T11:41:11.573Z,27.44
2018-09-12T11:42:11.572Z,27.46
2018-09-12T11:43:11.570Z,27.41
2018-09-12T11:44:11.562Z,27.34
2018-09-12T11:45:11.561Z,27.44
2018-09-12T11:46:11.553Z,27.37
2018-09-12T11:47:11.555Z,27.60
2018-09-12T11:48:11.551Z,27.66
2018-09-12T11:49:11.593Z,27.65
2018-09-12T11:50:11.542Z,27.59
2018-09-12T11:51:11.535Z,27.63
2018-09-12T11:52:11.532Z,27.62
2018-09-12T11:53:11.529Z,27.72
2018-09-12T11:54:11.527Z,27.65
2018-09-12T11:55:11.526Z,27.59
2018-09-12T11:56:11.524Z,27.59
2018-09-12T11:57:11.516Z,27.66
2018-09-12T11:58:11.512Z,27.69
2018-09-12T11:59:11.516Z,27.70
2018-09-12T12:00:11.507Z,27.74
2018-09-12T12:01:11.508Z,27.88
2018-09-12T12:02:11.578Z,27.93
2018-09-12T12:03:11.500Z,27.93
2018-09-12T12:04:11.496Z,27.93
2018-09-12T12:05:11.492Z,28.03
2018-09-12T12:06:11.564Z,28.04
2018-09-12T12:07:11.481Z,27.96
2018-09-12T12:08:11.477Z,27.93
2018-09-12T12:09:11.475Z,27.94
2018-09-12T12:10:11.472Z,28.00
2018-09-12T12:11:11.476Z,28.12
2018-09-12T12:12:11.468Z,28.11
2018-09-12T12:13:11.465Z,28.22
2018-09-12T12:14:11.458Z,28.25
2018-09-12T12:15:11.460Z,28.36
2018-09-12T12:16:11.455Z,28.31
2018-09-12T12:17:11.451Z,28.37
2018-09-12T12:18:11.445Z,28.41
2018-09-12T12:19:11.445Z,28.27
2018-09-12T12:20:11.434Z,28.33
2018-09-12T12:21:11.440Z,28.30
2018-09-12T12:22:11.433Z,28.33
2018-09-12T12:23:11.500Z,28.33
2018-09-12T12:24:11.435Z,28.33
2018-09-12T12:25:11.431Z,28.36
2018-09-12T12:26:11.424Z,28.37
2018-09-12T12:27:11.417Z,28.40
2018-09-12T12:28:11.427Z,28.40
2018-09-12T12:29:11.412Z,28.30
2018-09-12T12:30:11.410Z,28.43
2018-09-12T12:31:11.405Z,28.39
2018-09-12T12:32:11.411Z,28.41
2018-09-12T12:33:11.401Z,28.58
2018-09-12T12:34:11.398Z,28.56
2018-09-12T12:35:11.394Z,28.54
2018-09-12T12:36:11.394Z,28.46
2018-09-12T12:37:11.388Z,28.40
2018-09-12T12:38:11.389Z,28.48
2018-09-12T12:39:11.393Z,28.49
2018-09-12T12:40:11.377Z,28.61
2018-09-12T12:41:11.430Z,28.49
2018-09-12T12:42:11.368Z,28.59
2018-09-12T12:43:11.369Z,28.58
2018-09-12T12:44:11.374Z,28.55
2018-09-12T12:45:11.370Z,28.55
2018-09-12T12:46:11.366Z,28.43
2018-09-12T12:47:11.363Z,28.55
2018-09-12T12:48:11.357Z,28.54
2018-09-12T12:49:11.356Z,28.62
2018-09-12T12:50:11.352Z,28.61
2018-09-12T12:51:11.344Z,28.59
2018-09-12T12:52:11.345Z,28.67